createdAt,value
2022-08-26T00:00:20.357Z,6.38
2022-08-26T00:01:28.992Z,5.92
2022-08-26T00:02:26.975Z,5.28
2022-08-26T00:03:29.395Z,6.47
2022-08-26T00:04:31.756Z,5.71
2022-08-26T00:05:34.400Z,5.97
2022-08-26T00:06:38.840Z,6.16
2022-08-26T00:07:43.368Z,6.57
2022-08-26T00:08:45.981Z,5.22
2022-08-26T00:09:50.040Z,6.12
2022-08-26T00:10:52.989Z,5.84
2022-08-26T00:11:56.417Z,5.88
2022-08-26T00:12:58.587Z,6.43
2022-08-26T00:14:02.131Z,6.94
2022-08-26T00:15:07.958Z,6.52
2022-08-26T00:16:11.759Z,6.39
2022-08-26T00:17:14.359Z,6.42
2022-08-26T00:18:22.420Z,5.21
2022-08-26T00:19:21.601Z,6.82
2022-08-26T00:20:28.390Z,5.93
2022-08-26T00:21:30.633Z,6.51
2022-08-26T00:22:34.141Z,5.92
2022-08-26T00:23:36.994Z,6.34
2022-08-26T00:24:39.581Z,6.13
2022-08-26T00:25:43.792Z,6.43
2022-08-26T00:26:46.569Z,7.37
2022-08-26T00:27:49.580Z,6.40
2022-08-26T00:28:54.039Z,5.78
2022-08-26T00:29:56.738Z,5.72
2022-08-26T00:31:00.988Z,5.93
2022-08-26T00:32:04.231Z,6.49
2022-08-26T00:33:07.510Z,6.88
2022-08-26T00:34:11.274Z,6.70
2022-08-26T00:35:14.882Z,5.80
2022-08-26T00:36:20.322Z,6.84
2022-08-26T00:37:22.702Z,6.18
2022-08-26T00:38:27.593Z,6.72
2022-08-26T00:39:30.225Z,6.69
2022-08-26T00:40:36.264Z,6.15
2022-08-26T00:41:40.174Z,6.72
2022-08-26T00:42:46.048Z,6.11
2022-08-26T00:43:48.582Z,6.08
2022-08-26T00:44:50.881Z,6.28
2022-08-26T00:46:02.384Z,6.43
2022-08-26T00:47:08.590Z,6.63
2022-08-26T00:48:12.862Z,6.00
2022-08-26T00:49:19.058Z,6.69
2022-08-26T00:50:28.463Z,6.44
2022-08-26T00:51:35.292Z,7.42
2022-08-26T00:52:39.867Z,6.41
2022-08-26T00:53:50.375Z,6.47
2022-08-26T00:54:58.843Z,6.28
2022-08-26T00:56:05.442Z,6.59
2022-08-26T00:57:16.381Z,6.37
2022-08-26T00:58:15.111Z,7.04
2022-08-26T00:59:17.647Z,5.80
2022-08-26T01:00:23.860Z,6.99
2022-08-26T01:01:26.511Z,5.80
2022-08-26T01:02:29.042Z,6.51
2022-08-26T01:03:34.170Z,6.59
2022-08-26T01:04:39.114Z,6.87
2022-08-26T01:05:42.727Z,7.21
2022-08-26T01:06:47.260Z,5.73
2022-08-26T01:07:49.909Z,5.85
2022-08-26T01:08:52.854Z,5.60
2022-08-26T01:09:56.718Z,6.34
2022-08-26T01:11:00.624Z,6.71
2022-08-26T01:12:03.794Z,5.84
2022-08-26T01:13:09.428Z,6.59
2022-08-26T01:14:13.160Z,5.96
2022-08-26T01:15:19.248Z,6.37
2022-08-26T01:16:22.596Z,5.72
2022-08-26T01:17:25.011Z,6.40
2022-08-26T01:18:27.582Z,5.87
2022-08-26T01:19:33.517Z,5.99
2022-08-26T01:21:11.932Z,6.36
2022-08-26T01:22:20.502Z,6.29
2022-08-26T01:23:25.432Z,6.18
2022-08-26T01:24:29.526Z,6.28
2022-08-26T01:25:36.099Z,6.53
2022-08-26T01:26:41.559Z,6.17
2022-08-26T01:27:44.036Z,6.02
2022-08-26T01:28:50.586Z,5.51
2022-08-26T01:29:53.757Z,6.25
2022-08-26T01:30:58.474Z,6.31
2022-08-26T01:32:03.188Z,6.69
2022-08-26T01:33:10.846Z,6.65
2022-08-26T01:34:23.440Z,5.85
2022-08-26T01:35:27.501Z,6.37
2022-08-26T01:36:31.067Z,6.34
2022-08-26T01:37:36.951Z,5.91
2022-08-26T01:38:41.262Z,5.97
2022-08-26T01:39:46.546Z,6.17
2022-08-26T01:40:49.567Z,6.37
2022-08-26T01:41:56.090Z,5.72
2022-08-26T01:43:00.798Z,6.35
2022-08-26T01:44:06.002Z,6.56
2022-08-26T01:45:16.990Z,6.26
2022-08-26T01:46:23.017Z,6.43
2022-08-26T01:47:30.028Z,7.21
2022-08-26T01:48:35.328Z,6.72
2022-08-26T01:49:37.922Z,6.49
2022-08-26T01:50:42.441Z,6.99
2022-08-26T01:51:47.680Z,6.66
2022-08-26T01:52:54.589Z,6.74
2022-08-26T01:53:56.076Z,6.88
2022-08-26T01:54:59.267Z,6.99
2022-08-26T01:56:04.148Z,7.02
2022-08-26T01:57:08.230Z,7.39
2022-08-26T01:58:17.087Z,7.47
2022-08-26T01:59:20.542Z,7.14
2022-08-26T02:00:24.857Z,7.03
2022-08-26T02:01:29.183Z,6.81
2022-08-26T02:02:31.759Z,7.09
2022-08-26T02:03:38.714Z,6.69
2022-08-26T02:06:05.139Z,7.13
2022-08-26T02:07:09.879Z,7.58
2022-08-26T02:08:13.838Z,6.84
2022-08-26T02:09:18.469Z,6.38
2022-08-26T02:10:23.816Z,7.19
2022-08-26T02:11:25.988Z,6.99
2022-08-26T02:12:30.299Z,6.52
2022-08-26T02:13:35.947Z,6.40
2022-08-26T02:14:43.851Z,6.40
2022-08-26T02:15:47.022Z,6.42
2022-08-26T02:16:52.179Z,7.25
2022-08-26T02:17:54.604Z,6.25
2022-08-26T02:19:00.652Z,6.57
2022-08-26T02:20:04.427Z,6.78
2022-08-26T02:21:10.668Z,7.27
2022-08-26T02:22:16.515Z,7.63
2022-08-26T02:23:19.069Z,6.86
2022-08-26T02:24:28.828Z,6.98
2022-08-26T02:25:40.708Z,6.79
2022-08-26T02:26:45.364Z,7.33
2022-08-26T02:27:47.830Z,6.98
2022-08-26T02:28:56.417Z,6.99
2022-08-26T02:30:11.649Z,7.31
2022-08-26T02:31:14.258Z,7.30
2022-08-26T02:32:18.582Z,7.03
2022-08-26T02:33:21.201Z,6.72
2022-08-26T02:34:28.183Z,6.77
2022-08-26T02:35:33.136Z,7.06
2022-08-26T02:36:37.628Z,7.19
2022-08-26T02:37:42.473Z,7.81
2022-08-26T02:38:46.222Z,7.47
2022-08-26T02:39:48.892Z,6.63
2022-08-26T02:40:51.568Z,7.06
2022-08-26T02:41:53.778Z,7.15
2022-08-26T02:42:57.037Z,6.57
2022-08-26T02:43:59.848Z,7.02
2022-08-26T02:45:02.283Z,6.89
2022-08-26T02:46:05.166Z,6.76
2022-08-26T02:47:08.323Z,7.29
2022-08-26T02:48:16.707Z,7.38
2022-08-26T02:49:22.503Z,7.25
2022-08-26T02:50:26.269Z,6.82
2022-08-26T02:51:28.674Z,7.58
2022-08-26T02:52:31.257Z,6.72
2022-08-26T02:53:35.458Z,7.00
2022-08-26T02:54:38.542Z,7.50
2022-08-26T02:55:41.647Z,7.05
2022-08-26T02:56:45.048Z,7.55
2022-08-26T02:57:47.333Z,6.65
2022-08-26T02:58:50.130Z,7.55
2022-08-26T02:59:52.526Z,7.01
2022-08-26T03:00:55.100Z,7.39
2022-08-26T03:01:57.556Z,7.18
2022-08-26T03:03:01.930Z,7.18
2022-08-26T03:04:07.071Z,7.05
2022-08-26T03:05:10.580Z,7.23
2022-08-26T03:06:16.518Z,7.15
2022-08-26T03:07:19.020Z,6.81
2022-08-26T03:08:21.328Z,7.29
2022-08-26T03:09:24.200Z,6.77
2022-08-26T03:10:28.079Z,6.61
2022-08-26T03:11:33.046Z,7.09
2022-08-26T03:12:35.285Z,6.17
2022-08-26T03:13:38.142Z,6.88
2022-08-26T03:14:41.205Z,7.45
2022-08-26T03:15:43.886Z,6.88
2022-08-26T03:16:50.177Z,6.75
2022-08-26T03:17:52.381Z,6.92
2022-08-26T03:18:54.716Z,6.69
2022-08-26T03:19:57.507Z,6.89
2022-08-26T03:21:10.797Z,7.76
2022-08-26T03:22:14.544Z,7.16
2022-08-26T03:23:18.618Z,7.56
2022-08-26T03:24:21.346Z,7.53
2022-08-26T03:25:24.296Z,6.80
2022-08-26T03:26:28.360Z,7.18
2022-08-26T03:27:30.750Z,6.89
2022-08-26T03:28:35.031Z,6.74
2022-08-26T03:29:39.211Z,6.37
2022-08-26T03:30:45.062Z,6.82
2022-08-26T03:31:47.106Z,7.71
2022-08-26T03:32:49.602Z,7.20
2022-08-26T03:33:53.970Z,7.01
2022-08-26T03:34:56.679Z,7.74
2022-08-26T03:35:59.278Z,7.55
2022-08-26T03:37:01.710Z,7.75
2022-08-26T03:38:06.116Z,7.28
2022-08-26T03:39:10.413Z,7.25
2022-08-26T03:40:13.937Z,7.30
2022-08-26T03:41:17.203Z,6.44
2022-08-26T03:42:21.483Z,6.96
2022-08-26T03:43:23.854Z,7.16
2022-08-26T03:44:26.752Z,6.48
2022-08-26T03:45:29.003Z,6.87
2022-08-26T03:46:32.802Z,7.53
2022-08-26T03:47:35.833Z,7.16
2022-08-26T03:48:40.216Z,6.81
2022-08-26T03:49:42.390Z,7.09
2022-08-26T03:50:45.276Z,6.75
2022-08-26T03:51:50.019Z,6.31
2022-08-26T03:52:54.547Z,7.03
2022-08-26T03:53:57.389Z,6.85
2022-08-26T03:54:59.673Z,6.15
2022-08-26T03:56:03.489Z,6.50
2022-08-26T03:57:06.821Z,6.62
2022-08-26T03:58:09.129Z,6.62
2022-08-26T03:59:11.618Z,7.01
2022-08-26T04:00:18.424Z,6.62
2022-08-26T04:01:21.706Z,6.58
2022-08-26T04:02:25.359Z,6.60
2022-08-26T04:03:28.111Z,6.62
2022-08-26T04:04:30.553Z,6.95
2022-08-26T04:05:32.640Z,6.39
2022-08-26T04:06:38.166Z,6.42
2022-08-26T04:07:41.521Z,6.12
2022-08-26T04:08:43.806Z,6.64
2022-08-26T04:09:46.051Z,6.33
2022-08-26T04:10:49.453Z,6.62
2022-08-26T04:11:54.778Z,6.69
2022-08-26T04:13:06.415Z,6.81
2022-08-26T04:14:06.086Z,6.88
2022-08-26T04:15:12.883Z,6.89
2022-08-26T04:16:17.615Z,6.79
2022-08-26T04:17:20.621Z,6.43
2022-08-26T04:18:24.894Z,7.44
2022-08-26T04:19:29.246Z,6.72
2022-08-26T04:20:31.706Z,6.95
2022-08-26T04:21:34.933Z,6.42
2022-08-26T04:22:37.650Z,6.29
2022-08-26T04:23:47.177Z,6.85
2022-08-26T04:24:44.268Z,6.58
2022-08-26T04:25:46.482Z,6.68
2022-08-26T04:26:49.007Z,6.91
2022-08-26T04:27:51.217Z,5.86
2022-08-26T04:28:54.659Z,6.05
2022-08-26T04:29:57.056Z,5.97
2022-08-26T04:31:00.347Z,6.64
2022-08-26T04:32:03.886Z,6.64
2022-08-26T04:33:12.874Z,6.19
2022-08-26T04:34:11.179Z,6.27
2022-08-26T04:35:13.745Z,5.80
2022-08-26T04:36:17.475Z,6.17
2022-08-26T04:37:22.292Z,6.91
2022-08-26T04:38:25.222Z,6.74
2022-08-26T04:39:27.988Z,6.63
2022-08-26T04:40:31.055Z,6.71
2022-08-26T04:41:36.919Z,6.16
2022-08-26T04:42:39.429Z,6.78
2022-08-26T04:43:41.728Z,6.42
2022-08-26T04:44:43.912Z,6.28
2022-08-26T04:45:46.261Z,7.82
2022-08-26T04:46:48.716Z,6.39
2022-08-26T04:47:55.276Z,6.07
2022-08-26T04:48:57.673Z,6.26
2022-08-26T04:50:00.293Z,6.57
2022-08-26T04:51:04.222Z,6.89
2022-08-26T04:52:07.957Z,6.16
2022-08-26T04:53:10.213Z,5.56
2022-08-26T04:54:12.891Z,6.62
2022-08-26T04:55:16.428Z,5.38
2022-08-26T04:56:19.138Z,6.17
2022-08-26T04:57:21.435Z,6.17
2022-08-26T04:58:24.424Z,6.41
2022-08-26T04:59:28.070Z,7.12
2022-08-26T05:00:31.198Z,7.01
2022-08-26T05:01:34.105Z,6.23
2022-08-26T05:02:40.073Z,6.36
2022-08-26T05:03:42.819Z,5.89
2022-08-26T05:04:45.464Z,5.72
2022-08-26T05:05:49.111Z,6.39
2022-08-26T05:06:54.065Z,5.89
2022-08-26T05:07:56.650Z,5.68
2022-08-26T05:08:59.616Z,6.67
2022-08-26T05:10:03.919Z,6.00
2022-08-26T05:11:09.435Z,5.50
2022-08-26T05:12:11.730Z,6.26
2022-08-26T05:13:16.650Z,6.59
2022-08-26T05:14:20.629Z,6.04
2022-08-26T05:15:22.731Z,6.44
2022-08-26T05:16:25.708Z,6.21
2022-08-26T05:17:28.314Z,6.72
2022-08-26T05:18:30.735Z,6.12
2022-08-26T05:19:33.048Z,6.53
2022-08-26T05:20:46.256Z,5.83
2022-08-26T05:21:49.370Z,6.81
2022-08-26T05:22:51.845Z,7.77
2022-08-26T05:23:55.437Z,7.57
2022-08-26T05:24:58.057Z,6.93
2022-08-26T05:26:00.652Z,6.93
2022-08-26T05:27:03.673Z,7.29
2022-08-26T05:28:09.570Z,7.25
2022-08-26T05:29:12.743Z,7.43
2022-08-26T05:30:15.791Z,6.37
2022-08-26T05:31:21.170Z,6.85
2022-08-26T05:32:23.733Z,6.51
2022-08-26T05:33:26.211Z,7.86
2022-08-26T05:34:30.367Z,7.66
2022-08-26T05:35:33.370Z,7.98
2022-08-26T05:36:37.006Z,6.69
2022-08-26T05:37:40.377Z,7.59
2022-08-26T05:38:44.016Z,7.27
2022-08-26T05:39:50.948Z,6.57
2022-08-26T05:40:52.894Z,6.62
2022-08-26T05:41:55.699Z,6.58
2022-08-26T05:42:58.619Z,6.06
2022-08-26T05:44:02.179Z,5.99
2022-08-26T05:45:05.012Z,5.24
2022-08-26T05:46:07.542Z,4.94
2022-08-26T05:47:09.875Z,5.94
2022-08-26T05:48:13.895Z,5.14
2022-08-26T05:49:17.857Z,4.95
2022-08-26T05:50:22.380Z,5.72
2022-08-26T05:51:26.264Z,4.87
2022-08-26T05:52:28.583Z,4.96
2022-08-26T05:53:31.105Z,5.36
2022-08-26T05:54:34.599Z,4.44
2022-08-26T05:55:46.247Z,5.23
2022-08-26T05:56:51.132Z,5.24
2022-08-26T05:57:53.454Z,5.09
2022-08-26T05:58:58.350Z,5.67
2022-08-26T06:00:00.750Z,5.06
2022-08-26T06:02:38.898Z,5.28
2022-08-26T06:03:43.969Z,4.73
2022-08-26T06:04:46.144Z,5.11
2022-08-26T06:05:48.677Z,4.27
2022-08-26T06:06:52.021Z,5.11
2022-08-26T06:07:54.616Z,5.13
2022-08-26T06:08:58.776Z,5.04
2022-08-26T06:10:30.537Z,4.79
2022-08-26T06:11:10.697Z,4.39
2022-08-26T06:12:15.293Z,4.71
2022-08-26T06:13:20.926Z,4.37
2022-08-26T06:14:23.350Z,4.27
2022-08-26T06:15:26.008Z,4.68
2022-08-26T06:16:29.540Z,5.09
2022-08-26T06:17:32.000Z,4.27
2022-08-26T06:18:38.937Z,4.43
2022-08-26T06:19:41.494Z,4.90
2022-08-26T06:20:54.590Z,4.61
2022-08-26T06:21:54.178Z,4.75
2022-08-26T06:22:55.213Z,5.83
2022-08-26T06:24:01.239Z,4.35
2022-08-26T06:25:04.374Z,4.61
2022-08-26T06:26:09.200Z,5.26
2022-08-26T06:27:11.606Z,5.04
2022-08-26T06:28:15.068Z,4.55
2022-08-26T06:29:24.702Z,4.63
2022-08-26T06:30:24.309Z,4.83
2022-08-26T06:31:28.535Z,4.41
2022-08-26T06:32:31.683Z,4.41
2022-08-26T06:33:34.979Z,4.03
2022-08-26T06:34:37.707Z,4.03
2022-08-26T06:35:41.739Z,3.89
2022-08-26T06:36:44.526Z,3.94
2022-08-26T06:37:46.884Z,4.01
2022-08-26T06:38:50.865Z,4.05
2022-08-26T06:39:53.183Z,4.58
2022-08-26T06:40:55.984Z,6.15
2022-08-26T06:42:00.429Z,5.17
2022-08-26T06:43:02.774Z,4.60
2022-08-26T06:44:06.950Z,5.69
2022-08-26T06:45:11.741Z,4.45
2022-08-26T06:46:18.531Z,4.31
2022-08-26T06:47:22.993Z,4.26
2022-08-26T06:48:27.274Z,4.66
2022-08-26T06:49:30.276Z,4.37
2022-08-26T06:50:34.418Z,5.08
2022-08-26T06:51:39.219Z,4.93
2022-08-26T06:52:41.712Z,4.79
2022-08-26T06:53:45.572Z,4.17
2022-08-26T06:54:47.979Z,4.41
2022-08-26T06:55:51.848Z,4.08
2022-08-26T06:56:54.370Z,4.32
2022-08-26T06:57:57.004Z,4.13
2022-08-26T06:58:59.606Z,4.61
2022-08-26T07:00:05.464Z,3.85
2022-08-26T07:01:21.427Z,4.23
2022-08-26T07:02:24.360Z,4.31
2022-08-26T07:03:28.926Z,5.18
2022-08-26T07:04:32.865Z,4.63
2022-08-26T07:05:36.975Z,4.02
2022-08-26T07:06:44.803Z,3.86
2022-08-26T07:07:48.119Z,3.84
2022-08-26T07:10:07.891Z,4.41
2022-08-26T07:11:11.686Z,4.47
2022-08-26T07:12:17.426Z,4.01
2022-08-26T07:13:30.737Z,3.36
2022-08-26T07:14:26.168Z,4.49
2022-08-26T07:15:31.404Z,3.85
2022-08-26T07:16:33.597Z,3.88
2022-08-26T07:17:38.087Z,4.13
2022-08-26T07:18:41.876Z,3.72
2022-08-26T07:19:48.484Z,4.13
2022-08-26T07:20:54.863Z,3.42
2022-08-26T07:22:04.300Z,3.85
2022-08-26T07:23:11.743Z,4.51
2022-08-26T07:24:13.114Z,3.48
2022-08-26T07:25:15.556Z,5.31
2022-08-26T07:26:22.214Z,4.48
2022-08-26T07:27:26.548Z,3.32
2022-08-26T07:28:31.116Z,3.32
2022-08-26T07:29:34.412Z,3.30
2022-08-26T07:30:40.312Z,3.52
2022-08-26T07:31:43.322Z,3.63
2022-08-26T07:32:45.615Z,3.81
2022-08-26T07:33:48.105Z,3.12
2022-08-26T07:34:51.064Z,3.15
2022-08-26T07:35:53.932Z,3.98
2022-08-26T07:36:56.333Z,4.23
2022-08-26T07:37:58.727Z,3.31
2022-08-26T07:39:01.299Z,3.13
2022-08-26T07:40:04.853Z,3.54
2022-08-26T07:41:07.958Z,3.99
2022-08-26T07:42:14.484Z,3.22
2022-08-26T07:43:19.126Z,3.40
2022-08-26T07:44:23.010Z,2.66
2022-08-26T07:45:26.002Z,2.96
2022-08-26T07:46:30.297Z,3.09
2022-08-26T07:47:33.618Z,2.69
2022-08-26T07:48:36.541Z,3.02
2022-08-26T07:49:40.085Z,3.20
2022-08-26T07:50:49.386Z,3.02
2022-08-26T07:51:47.305Z,3.14
2022-08-26T07:52:49.568Z,3.38
2022-08-26T07:53:52.477Z,3.15
2022-08-26T07:54:57.070Z,3.58
2022-08-26T07:56:00.821Z,2.90
2022-08-26T07:57:05.114Z,3.56
2022-08-26T07:58:11.437Z,4.28
2022-08-26T07:59:15.589Z,3.21
2022-08-26T08:00:19.015Z,3.13
2022-08-26T08:01:24.582Z,3.03
2022-08-26T08:02:28.890Z,2.39
2022-08-26T08:03:31.206Z,2.70
2022-08-26T08:04:33.773Z,3.98
2022-08-26T08:05:37.143Z,6.25
2022-08-26T08:06:41.708Z,3.99
2022-08-26T08:07:46.588Z,3.42
2022-08-26T08:08:50.919Z,2.87
2022-08-26T08:09:54.095Z,2.67
2022-08-26T08:10:57.475Z,2.86
2022-08-26T08:11:59.902Z,3.22
2022-08-26T08:13:05.414Z,2.44
2022-08-26T08:14:08.970Z,2.80
2022-08-26T08:15:13.779Z,3.09
2022-08-26T08:16:19.944Z,3.52
2022-08-26T08:17:22.519Z,2.88
2022-08-26T08:18:25.982Z,3.30
2022-08-26T08:19:37.029Z,3.07
2022-08-26T08:20:36.387Z,3.11
2022-08-26T08:21:39.281Z,2.46
2022-08-26T08:22:41.539Z,2.61
2022-08-26T08:23:44.324Z,2.53
2022-08-26T08:24:46.676Z,2.81
2022-08-26T08:25:52.851Z,2.44
2022-08-26T08:26:55.425Z,3.62
2022-08-26T08:27:58.896Z,3.48
2022-08-26T08:29:01.061Z,2.99
2022-08-26T08:30:06.350Z,2.73
2022-08-26T08:31:09.085Z,2.61
2022-08-26T08:32:12.257Z,2.84
2022-08-26T08:33:16.458Z,2.25
2022-08-26T08:34:21.551Z,2.62
2022-08-26T08:35:24.665Z,2.58
2022-08-26T08:36:32.233Z,3.22
2022-08-26T08:37:32.798Z,4.79
2022-08-26T08:38:35.333Z,3.21
2022-08-26T08:39:37.718Z,3.48
2022-08-26T08:40:43.478Z,2.79
2022-08-26T08:42:15.404Z,2.97
2022-08-26T08:43:37.829Z,2.07
2022-08-26T08:44:40.893Z,2.78
2022-08-26T08:45:49.973Z,2.07
2022-08-26T08:46:56.634Z,2.71
2022-08-26T08:48:27.789Z,1.86
2022-08-26T08:49:32.081Z,2.82
2022-08-26T08:50:47.091Z,2.93
2022-08-26T08:51:53.795Z,2.99
2022-08-26T08:53:04.485Z,1.85
2022-08-26T08:54:10.041Z,1.96
2022-08-26T08:55:17.746Z,1.86
2022-08-26T08:56:34.867Z,2.07
2022-08-26T08:57:46.662Z,1.97
2022-08-26T08:59:10.050Z,2.35
2022-08-26T09:00:18.145Z,2.41
2022-08-26T09:02:53.044Z,2.18
2022-08-26T09:04:17.543Z,1.70
2022-08-26T09:05:26.523Z,2.26
2022-08-26T09:06:29.017Z,1.97
2022-08-26T09:07:47.239Z,1.74
2022-08-26T09:08:50.752Z,1.83
2022-08-26T09:09:56.718Z,1.76
2022-08-26T09:11:01.638Z,2.28
2022-08-26T09:12:07.519Z,1.66
2022-08-26T09:13:16.890Z,2.27
2022-08-26T09:14:18.920Z,1.29
2022-08-26T09:15:42.395Z,1.80
2022-08-26T09:16:51.371Z,1.51
2022-08-26T09:18:06.415Z,1.68
2022-08-26T09:19:30.589Z,2.04
2022-08-26T09:21:58.367Z,1.40
2022-08-26T09:23:00.759Z,1.19
2022-08-26T09:24:04.620Z,1.30
2022-08-26T09:25:11.219Z,1.72
2022-08-26T09:26:25.943Z,1.41
2022-08-26T09:27:50.449Z,1.63
2022-08-26T09:29:02.326Z,1.53
2022-08-26T09:30:06.231Z,1.59
2022-08-26T09:31:15.173Z,1.56
2022-08-26T09:32:21.401Z,1.49
2022-08-26T09:33:29.585Z,1.30
2022-08-26T09:34:32.745Z,1.68
2022-08-26T09:35:41.266Z,1.84
2022-08-26T09:36:47.510Z,1.32
2022-08-26T09:38:53.332Z,1.07
2022-08-26T09:39:59.979Z,1.26
2022-08-26T09:41:06.192Z,1.41
2022-08-26T09:42:24.011Z,2.27
2022-08-26T09:43:27.096Z,1.53
2022-08-26T09:44:30.413Z,1.11
2022-08-26T09:45:34.219Z,1.32
2022-08-26T09:46:46.929Z,1.39
2022-08-26T09:47:55.128Z,1.44
2022-08-26T09:49:17.761Z,0.97
2022-08-26T09:50:54.759Z,1.55
2022-08-26T09:52:12.816Z,1.66
2022-08-26T09:53:28.517Z,1.14
2022-08-26T09:54:30.252Z,0.88
2022-08-26T09:55:30.902Z,1.08
2022-08-26T09:56:36.867Z,2.37
2022-08-26T09:57:49.033Z,1.58
2022-08-26T09:58:54.508Z,0.89
2022-08-26T09:59:57.298Z,1.11
2022-08-26T10:01:01.778Z,0.86
2022-08-26T10:02:26.846Z,1.14
2022-08-26T10:03:32.588Z,1.02
2022-08-26T10:04:35.252Z,1.22
2022-08-26T10:05:44.079Z,1.19
2022-08-26T10:07:02.232Z,1.30
2022-08-26T10:08:17.195Z,2.86
2022-08-26T10:09:20.330Z,1.85
2022-08-26T10:10:27.581Z,3.65
2022-08-26T10:11:41.306Z,2.33
2022-08-26T10:12:52.881Z,1.46
2022-08-26T10:15:14.869Z,1.41
2022-08-26T10:16:24.559Z,1.69
2022-08-26T10:17:32.766Z,1.04
2022-08-26T10:18:46.299Z,1.83
2022-08-26T10:20:23.590Z,1.22
2022-08-26T10:21:41.848Z,1.05
2022-08-26T10:23:01.276Z,0.92
2022-08-26T10:24:06.147Z,1.20
2022-08-26T10:25:13.082Z,1.13
2022-08-26T10:26:41.160Z,1.12
2022-08-26T10:28:09.237Z,2.09
2022-08-26T10:29:15.320Z,1.82
2022-08-26T10:30:21.338Z,1.10
2022-08-26T10:31:30.535Z,1.06
2022-08-26T10:32:40.907Z,2.03
2022-08-26T10:33:45.881Z,2.11
2022-08-26T10:34:48.239Z,1.04
2022-08-26T10:35:53.944Z,1.18
2022-08-26T10:38:13.244Z,1.14
2022-08-26T10:39:22.377Z,1.69
2022-08-26T10:40:29.517Z,1.87
2022-08-26T10:41:35.983Z,1.70
2022-08-26T10:42:42.028Z,2.57
2022-08-26T10:43:59.182Z,1.42
2022-08-26T10:45:15.136Z,0.93
2022-08-26T10:46:21.856Z,1.08
2022-08-26T10:47:27.777Z,1.24
2022-08-26T10:48:35.835Z,0.94
2022-08-26T10:49:39.120Z,1.93
2022-08-26T10:50:47.431Z,4.09
2022-08-26T10:51:53.448Z,3.99
2022-08-26T10:53:14.311Z,2.28
2022-08-26T10:55:24.268Z,1.62
2022-08-26T10:56:30.739Z,1.05
2022-08-26T10:57:47.438Z,1.34
2022-08-26T10:59:02.531Z,1.25
2022-08-26T11:00:12.671Z,1.30
2022-08-26T11:01:41.520Z,6.43
2022-08-26T11:02:47.778Z,3.30
2022-08-26T11:03:59.857Z,1.97
2022-08-26T11:05:05.174Z,1.65
2022-08-26T11:06:25.514Z,1.41
2022-08-26T11:07:33.410Z,1.38
2022-08-26T11:08:39.301Z,1.65
2022-08-26T11:09:44.587Z,2.48
2022-08-26T11:10:59.867Z,3.57
2022-08-26T11:12:06.782Z,2.14
2022-08-26T11:13:07.111Z,1.82
2022-08-26T11:14:28.428Z,1.80
2022-08-26T11:15:29.995Z,1.77
2022-08-26T11:16:35.897Z,1.43
2022-08-26T11:17:52.631Z,2.34
2022-08-26T11:18:54.708Z,1.73
2022-08-26T11:20:01.959Z,2.04
2022-08-26T11:21:02.871Z,2.16
2022-08-26T11:22:08.114Z,2.65
2022-08-26T11:23:23.180Z,2.91
2022-08-26T11:24:46.221Z,3.19
2022-08-26T11:26:10.952Z,2.29
2022-08-26T11:27:38.626Z,1.85
2022-08-26T11:28:49.596Z,2.41
2022-08-26T11:30:07.975Z,1.77
2022-08-26T11:31:13.786Z,1.91
2022-08-26T11:32:38.343Z,1.69
2022-08-26T11:35:06.672Z,1.54
2022-08-26T11:36:12.613Z,1.64
2022-08-26T11:37:17.445Z,2.22
2022-08-26T11:38:23.495Z,2.11
2022-08-26T11:39:36.727Z,1.73
2022-08-26T11:40:37.477Z,1.72
2022-08-26T11:41:43.695Z,1.99
2022-08-26T11:42:52.364Z,2.11
2022-08-26T11:43:56.671Z,1.54
2022-08-26T11:45:01.353Z,1.21
2022-08-26T11:46:10.680Z,1.20
2022-08-26T11:47:15.985Z,1.17
2022-08-26T11:48:21.618Z,1.12
2022-08-26T11:49:27.768Z,1.30
2022-08-26T11:50:30.802Z,1.22
2022-08-26T11:51:38.228Z,2.67
2022-08-26T11:52:39.003Z,1.32
2022-08-26T11:53:43.240Z,0.96
2022-08-26T11:55:03.480Z,1.29
2022-08-26T11:56:18.773Z,1.68
2022-08-26T11:57:23.358Z,1.28
2022-08-26T11:58:26.856Z,1.83
2022-08-26T12:00:45.601Z,1.57
2022-08-26T12:01:50.680Z,1.68
2022-08-26T12:02:53.698Z,1.37
2022-08-26T12:03:56.731Z,1.26
2022-08-26T12:05:01.153Z,1.05
2022-08-26T12:06:14.227Z,1.59
2022-08-26T12:07:23.799Z,1.09
2022-08-26T12:08:27.977Z,1.03
2022-08-26T12:09:33.804Z,1.27
2022-08-26T12:10:36.948Z,1.46
2022-08-26T12:11:39.812Z,1.40
2022-08-26T12:12:42.304Z,1.45
2022-08-26T12:13:57.109Z,1.02
2022-08-26T12:15:18.535Z,1.27
2022-08-26T12:16:29.025Z,1.19
2022-08-26T12:17:34.354Z,1.43
2022-08-26T12:18:38.409Z,1.11
2022-08-26T12:19:40.710Z,1.26
2022-08-26T12:20:43.814Z,1.34
2022-08-26T12:21:47.842Z,1.21
2022-08-26T12:22:50.178Z,1.43
2022-08-26T12:23:56.006Z,1.27
2022-08-26T12:25:04.741Z,1.99
2022-08-26T12:26:17.077Z,1.54
2022-08-26T12:27:38.481Z,1.12
2022-08-26T12:30:19.287Z,1.33
2022-08-26T12:31:24.325Z,1.73
2022-08-26T12:32:29.614Z,1.43
2022-08-26T12:33:34.499Z,1.47
2022-08-26T12:34:37.615Z,1.20
2022-08-26T12:35:40.928Z,1.22
2022-08-26T12:36:54.166Z,1.28
2022-08-26T12:37:57.866Z,1.60
2022-08-26T12:39:14.617Z,1.71
2022-08-26T12:41:51.178Z,1.46
2022-08-26T12:42:54.221Z,1.52
2022-08-26T12:43:56.769Z,1.33
2022-08-26T12:45:06.059Z,1.61
2022-08-26T12:46:12.566Z,1.46
2022-08-26T12:47:35.191Z,1.26
2022-08-26T12:48:35.326Z,1.19
2022-08-26T12:49:40.813Z,1.57
2022-08-26T12:50:48.443Z,1.12
2022-08-26T12:51:51.557Z,1.10
2022-08-26T12:52:57.634Z,1.14
2022-08-26T12:54:01.784Z,1.26
2022-08-26T12:56:25.382Z,1.56
2022-08-26T12:57:31.255Z,1.42
2022-08-26T12:58:37.040Z,1.43
2022-08-26T12:59:39.532Z,1.33
2022-08-26T13:00:54.748Z,1.67
2022-08-26T13:01:59.382Z,1.34
2022-08-26T13:03:03.993Z,1.28
2022-08-26T13:04:06.592Z,1.37
2022-08-26T13:05:12.666Z,1.33
2022-08-26T13:06:20.412Z,1.27
2022-08-26T13:07:25.346Z,1.20
2022-08-26T13:08:27.932Z,1.41
2022-08-26T13:09:30.664Z,1.53
2022-08-26T13:10:36.550Z,2.26
2022-08-26T13:11:42.454Z,2.00
2022-08-26T13:12:45.471Z,1.38
2022-08-26T13:13:57.917Z,1.31
2022-08-26T13:15:03.492Z,1.13
2022-08-26T13:16:07.159Z,1.52
2022-08-26T13:17:09.820Z,1.11
2022-08-26T13:18:12.426Z,1.29
2022-08-26T13:19:18.313Z,1.27
2022-08-26T13:20:21.206Z,1.76
2022-08-26T13:21:37.528Z,1.35
2022-08-26T13:23:42.603Z,1.09
2022-08-26T13:24:45.436Z,1.05
2022-08-26T13:25:47.804Z,1.29
2022-08-26T13:26:51.199Z,1.30
2022-08-26T13:27:53.780Z,1.36
2022-08-26T13:29:01.779Z,1.19
2022-08-26T13:30:04.017Z,1.13
2022-08-26T13:31:07.167Z,1.41
2022-08-26T13:32:10.132Z,1.38
2022-08-26T13:33:14.706Z,1.07
2022-08-26T13:34:20.992Z,1.25
2022-08-26T13:35:25.747Z,1.11
2022-08-26T13:36:28.856Z,1.07
2022-08-26T13:37:34.629Z,1.14
2022-08-26T13:38:38.371Z,1.15
2022-08-26T13:39:41.505Z,1.13
2022-08-26T13:40:44.329Z,1.15
2022-08-26T13:41:48.528Z,1.23
2022-08-26T13:42:51.417Z,1.23
2022-08-26T13:43:53.826Z,1.34
2022-08-26T13:44:58.992Z,1.36
2022-08-26T13:46:01.781Z,1.05
2022-08-26T13:47:05.517Z,1.26
2022-08-26T13:48:08.550Z,1.07
2022-08-26T13:49:11.635Z,1.28
2022-08-26T13:50:14.843Z,1.11
2022-08-26T13:51:19.617Z,1.01
2022-08-26T13:52:30.006Z,1.01
2022-08-26T13:53:31.476Z,1.04
2022-08-26T13:54:36.599Z,1.43
2022-08-26T13:55:39.036Z,1.41
2022-08-26T13:56:41.643Z,1.61
2022-08-26T13:57:44.256Z,1.37
2022-08-26T13:58:57.524Z,1.21
2022-08-26T14:00:00.266Z,1.02
2022-08-26T14:01:02.868Z,1.61
2022-08-26T14:02:05.625Z,0.89
2022-08-26T14:03:13.253Z,1.27
2022-08-26T14:04:13.894Z,1.07
2022-08-26T14:05:16.552Z,1.05
2022-08-26T14:06:20.570Z,1.42
2022-08-26T14:07:22.877Z,1.24
2022-08-26T14:08:25.628Z,1.13
2022-08-26T14:09:30.390Z,1.07
2022-08-26T14:10:35.248Z,1.01
2022-08-26T14:11:54.479Z,1.05
2022-08-26T14:12:43.501Z,1.21
2022-08-26T14:13:45.700Z,1.33
2022-08-26T14:14:48.394Z,1.43
2022-08-26T14:15:52.899Z,1.19
2022-08-26T14:17:00.001Z,1.18
2022-08-26T14:18:05.706Z,1.19
2022-08-26T14:19:10.417Z,1.57
2022-08-26T14:20:18.203Z,1.31
2022-08-26T14:21:21.575Z,1.03
2022-08-26T14:22:24.154Z,1.17
2022-08-26T14:23:27.474Z,1.54
2022-08-26T14:24:30.598Z,1.02
2022-08-26T14:25:32.973Z,1.00
2022-08-26T14:26:35.927Z,2.13
2022-08-26T14:27:41.984Z,1.19
2022-08-26T14:28:44.510Z,1.87
2022-08-26T14:29:46.700Z,1.32
2022-08-26T14:30:55.352Z,1.19
2022-08-26T14:32:01.306Z,1.12
2022-08-26T14:33:04.016Z,1.59
2022-08-26T14:34:07.831Z,0.90
2022-08-26T14:35:13.421Z,1.29
2022-08-26T14:36:16.791Z,1.16
2022-08-26T14:37:20.659Z,0.99
2022-08-26T14:38:23.258Z,1.67
2022-08-26T14:39:25.959Z,1.33
2022-08-26T14:40:34.016Z,1.23
2022-08-26T14:41:54.261Z,1.50
2022-08-26T14:42:59.056Z,1.00
2022-08-26T14:44:08.936Z,1.42
2022-08-26T14:45:14.849Z,1.44
2022-08-26T14:46:19.191Z,1.69
2022-08-26T14:47:25.637Z,1.27
2022-08-26T14:48:29.336Z,1.28
2022-08-26T14:49:33.438Z,1.00
2022-08-26T14:50:36.647Z,1.28
2022-08-26T14:51:40.478Z,1.39
2022-08-26T14:52:43.699Z,2.14